^^
Station Historical Data
Daily Summary for February 10, 2018 Units:  English    Metric   Both
« Previous Day
Next Day »
Daily Weekly Monthly Yearly Custom
  High: Low: Average:
Temperature: TemperatureF °F 62.1 °F 72.3 °F
Dew Point: DewpointF °F 61.8 °F 65.3 °F
Humidity: Humidity% 47% 81%
Wind Speed: WindSpeedMPHmph 0.0mph 0mph
Wind Gust: WindSpeedGustMPHmph - -
Wind- - North
Pressure: PressureIn in 30.10 in -
Precipitation: 0.00 in    
Historical Graphs
 
 
Tabular Data for February 10, 2018
Time Temperature Dew Point Pressure Wind Wind Speed Wind Gust Humidity Rainfall Rate (Hourly) solar Conditions
TemperatureF °F DewpointF °F PressureIn in Calm     Humidity% HourlyPrecipIn in SolarRadiationWatts/m^2 W/m2 Conditions
00:04 66.9 °F 65.7 °F 30.22 in Calm     96% 0.00 in 0.0 W/m2 CLR
00:09 66.9 °F 65.7 °F 30.22 in Calm     96% 0.00 in 0.0 W/m2 CLR
00:14 66.9 °F 65.7 °F 30.22 in Calm     96% 0.00 in 0.0 W/m2 CLR
00:19 66.9 °F 65.7 °F 30.22 in Calm     96% 0.00 in 0.0 W/m2 CLR
00:24 66.9 °F 65.7 °F 30.22 in Calm     96% 0.00 in 0.0 W/m2 CLR
00:29 66.9 °F 65.7 °F 30.22 in Calm     96% 0.00 in 0.0 W/m2 CLR
00:34 66.9 °F 65.7 °F 30.22 in Calm     96% 0.00 in 0.0 W/m2 CLR
00:39 66.9 °F 65.7 °F 30.22 in Calm     96% 0.00 in 0.0 W/m2 CLR
00:44 66.9 °F 65.7 °F 30.22 in Calm     96% 0.00 in 0.0 W/m2 CLR
00:49 66.9 °F 65.7 °F 30.22 in Calm     96% 0.00 in 0.0 W/m2 CLR
00:54 66.9 °F 65.7 °F 30.22 in Calm     96% 0.00 in 0.0 W/m2 CLR
00:59 66.9 °F 65.7 °F 30.22 in Calm     96% 0.00 in 0.0 W/m2 CLR
01:04 66.0 °F 66.0 °F 30.21 in Calm     100% 0.00 in 0.0 W/m2 CLR
01:09 66.0 °F 66.0 °F 30.21 in Calm     100% 0.00 in 0.0 W/m2 CLR
01:14 66.0 °F 66.0 °F 30.21 in Calm     100% 0.00 in 0.0 W/m2 CLR
01:19 66.0 °F 66.0 °F 30.21 in Calm     100% 0.00 in 0.0 W/m2 CLR
01:24 66.0 °F 66.0 °F 30.21 in Calm     100% 0.00 in 0.0 W/m2 CLR
01:29 66.0 °F 66.0 °F 30.21 in Calm     100% 0.00 in 0.0 W/m2 CLR
01:34 66.0 °F 66.0 °F 30.21 in Calm     100% 0.00 in 0.0 W/m2 CLR
01:39 66.0 °F 66.0 °F 30.21 in Calm     100% 0.00 in 0.0 W/m2 CLR
01:44 66.0 °F 66.0 °F 30.21 in Calm     100% 0.00 in 0.0 W/m2 CLR
01:49 66.0 °F 66.0 °F 30.21 in Calm     100% 0.00 in 0.0 W/m2 CLR
01:54 66.0 °F 66.0 °F 30.21 in Calm     100% 0.00 in 0.0 W/m2 CLR
01:59 66.0 °F 66.0 °F 30.21 in Calm     100% 0.00 in 0.0 W/m2 CLR
02:04 64.9 °F 64.9 °F 30.21 in Calm     100% 0.00 in 0.0 W/m2 CLR
02:09 64.9 °F 64.9 °F 30.21 in Calm     100% 0.00 in 0.0 W/m2 CLR
02:14 64.9 °F 64.9 °F 30.21 in Calm     100% 0.00 in 0.0 W/m2 CLR
02:19 64.9 °F 64.9 °F 30.21 in Calm     100% 0.00 in 0.0 W/m2 CLR
02:24 64.9 °F 64.9 °F 30.21 in Calm     100% 0.00 in 0.0 W/m2 CLR
02:29 64.9 °F 64.9 °F 30.21 in Calm     100% 0.00 in 0.0 W/m2 CLR
02:34 64.9 °F 64.9 °F 30.21 in Calm     100% 0.00 in 0.0 W/m2 CLR
02:39 64.9 °F 64.9 °F 30.21 in Calm     100% 0.00 in 0.0 W/m2 CLR
02:44 64.9 °F 64.9 °F 30.21 in Calm     100% 0.00 in 0.0 W/m2 CLR
02:49 64.9 °F 64.9 °F 30.21 in Calm     100% 0.00 in 0.0 W/m2 CLR
02:54 64.9 °F 64.9 °F 30.21 in Calm     100% 0.00 in 0.0 W/m2 CLR
02:59 64.9 °F 64.9 °F 30.21 in Calm     100% 0.00 in 0.0 W/m2 CLR
03:04 63.0 °F 63.0 °F 30.19 in Calm     100% 0.00 in 0.0 W/m2
03:09 63.0 °F 63.0 °F 30.19 in Calm     100% 0.00 in 0.0 W/m2
03:14 63.0 °F 63.0 °F 30.19 in Calm     100% 0.00 in 0.0 W/m2
03:19 64.9 °F 64.9 °F 30.18 in Calm     100% 0.00 in 0.0 W/m2
03:24 64.9 °F 64.9 °F 30.18 in Calm     100% 0.00 in 0.0 W/m2
03:29 64.9 °F 64.9 °F 30.18 in Calm     100% 0.00 in 0.0 W/m2
03:34 64.0 °F 64.0 °F 30.18 in Calm     100% 0.00 in 0.0 W/m2
03:39 64.0 °F 64.0 °F 30.18 in Calm     100% 0.00 in 0.0 W/m2
03:45 64.0 °F 64.0 °F 30.18 in Calm     100% 0.00 in 0.0 W/m2
03:50 64.0 °F 64.0 °F 30.17 in Calm     100% 0.00 in 0.0 W/m2
03:55 64.0 °F 64.0 °F 30.17 in Calm     100% 0.00 in 0.0 W/m2
04:00 64.0 °F 64.0 °F 30.17 in Calm     100% 0.00 in 0.0 W/m2
04:05 63.0 °F 63.0 °F 30.17 in Calm     100% 0.00 in 0.0 W/m2
04:10 63.0 °F 63.0 °F 30.17 in Calm     100% 0.00 in 0.0 W/m2
04:15 63.0 °F 63.0 °F 30.17 in Calm     100% 0.00 in 0.0 W/m2
04:20 63.0 °F 63.0 °F 30.17 in Calm     100% 0.00 in 0.0 W/m2
04:25 63.0 °F 63.0 °F 30.17 in Calm     100% 0.00 in 0.0 W/m2
04:30 63.0 °F 63.0 °F 30.17 in Calm     100% 0.00 in 0.0 W/m2
04:35 63.0 °F 63.0 °F 30.17 in Calm     100% 0.00 in 0.0 W/m2
04:40 63.0 °F 63.0 °F 30.17 in Calm     100% 0.00 in 0.0 W/m2
04:45 63.0 °F 63.0 °F 30.17 in Calm     100% 0.00 in 0.0 W/m2
04:50 63.0 °F 63.0 °F 30.17 in Calm     100% 0.00 in 0.0 W/m2
04:55 63.0 °F 63.0 °F 30.17 in Calm     100% 0.00 in 0.0 W/m2
05:00 63.0 °F 63.0 °F 30.17 in Calm     100% 0.00 in 0.0 W/m2
05:05 62.1 °F 62.1 °F 30.17 in Calm     100% 0.00 in 0.0 W/m2
05:10 62.1 °F 62.1 °F 30.17 in Calm     100% 0.00 in 0.0 W/m2
05:15 62.1 °F 62.1 °F 30.17 in Calm     100% 0.00 in 0.0 W/m2
05:20 63.0 °F 63.0 °F 30.17 in Calm     100% 0.00 in 0.0 W/m2
05:25 63.0 °F 63.0 °F 30.17 in Calm     100% 0.00 in 0.0 W/m2
05:30 63.0 °F 63.0 °F 30.17 in Calm     100% 0.00 in 0.0 W/m2
05:35 63.0 °F 63.0 °F 30.17 in Calm     100% 0.00 in 0.0 W/m2
05:40 63.0 °F 63.0 °F 30.17 in Calm     100% 0.00 in 0.0 W/m2
05:45 63.0 °F 63.0 °F 30.17 in Calm     100% 0.00 in 0.0 W/m2
05:50 62.1 °F 62.1 °F 30.18 in Calm     100% 0.00 in 0.0 W/m2
05:55 62.1 °F 62.1 °F 30.18 in Calm     100% 0.00 in 0.0 W/m2
06:00 62.1 °F 62.1 °F 30.18 in Calm     100% 0.00 in 0.0 W/m2
06:05 63.0 °F 63.0 °F 30.18 in Calm     100% 0.00 in 0.0 W/m2
06:10 63.0 °F 63.0 °F 30.18 in Calm     100% 0.00 in 0.0 W/m2
06:15 63.0 °F 63.0 °F 30.18 in Calm     100% 0.00 in 0.0 W/m2
06:20 63.0 °F 63.0 °F 30.19 in Calm     100% 0.00 in 0.0 W/m2
06:25 63.0 °F 63.0 °F 30.19 in Calm     100% 0.00 in 0.0 W/m2
06:30 63.0 °F 63.0 °F 30.19 in Calm     100% 0.00 in 0.0 W/m2
06:35 63.0 °F 63.0 °F 30.19 in Calm     100% 0.00 in 0.0 W/m2
06:40 63.0 °F 63.0 °F 30.19 in Calm     100% 0.00 in 0.0 W/m2
06:45 63.0 °F 63.0 °F 30.19 in Calm     100% 0.00 in 0.0 W/m2
06:50 63.0 °F 63.0 °F 30.19 in Calm     100% 0.00 in 0.0 W/m2
06:55 63.0 °F 63.0 °F 30.19 in Calm     100% 0.00 in 0.0 W/m2
07:00 63.0 °F 63.0 °F 30.19 in Calm     100% 0.00 in 0.0 W/m2 OVC
07:05 64.9 °F 64.9 °F 30.20 in Calm     100% 0.00 in 0.0 W/m2 OVC
07:10 64.9 °F 64.9 °F 30.20 in Calm     100% 0.00 in 0.0 W/m2 OVC
07:15 64.9 °F 64.9 °F 30.20 in Calm     100% 0.00 in 0.0 W/m2 OVC
07:20 64.9 °F 64.9 °F 30.20 in Calm     100% 0.00 in 0.0 W/m2 OVC
07:25 64.9 °F 64.9 °F 30.20 in Calm     100% 0.00 in 0.0 W/m2 OVC
07:30 64.9 °F 64.9 °F 30.20 in Calm     100% 0.00 in 0.0 W/m2 OVC
07:35 64.9 °F 64.9 °F 30.20 in Calm     100% 0.00 in 0.0 W/m2 OVC
07:40 64.9 °F 64.9 °F 30.20 in Calm     100% 0.00 in 0.0 W/m2 OVC
07:45 64.9 °F 64.9 °F 30.20 in Calm     100% 0.00 in 0.0 W/m2 OVC
07:50 64.9 °F 64.9 °F 30.22 in Calm     100% 0.00 in 0.0 W/m2 OVC
07:55 64.9 °F 64.9 °F 30.22 in Calm     100% 0.00 in 0.0 W/m2 OVC
08:00 64.9 °F 64.9 °F 30.22 in Calm     100% 0.00 in 0.0 W/m2 OVC
08:05 66.0 °F 66.0 °F 30.22 in Calm     100% 0.00 in 0.0 W/m2 OVC
08:10 66.0 °F 66.0 °F 30.22 in Calm     100% 0.00 in 0.0 W/m2 OVC
08:15 66.0 °F 66.0 °F 30.22 in Calm     100% 0.00 in 0.0 W/m2 OVC
08:20 66.0 °F 66.0 °F 30.22 in Calm     100% 0.00 in 0.0 W/m2 OVC
08:25 66.0 °F 66.0 °F 30.22 in Calm     100% 0.00 in 0.0 W/m2 OVC
08:30 66.0 °F 66.0 °F 30.22 in Calm     100% 0.00 in 0.0 W/m2 OVC
08:35 66.9 °F 66.9 °F 30.23 in Calm     100% 0.00 in 0.0 W/m2 OVC
08:40 66.9 °F 66.9 °F 30.23 in Calm     100% 0.00 in 0.0 W/m2 OVC
08:45 66.9 °F 66.9 °F 30.23 in Calm     100% 0.00 in 0.0 W/m2 OVC
08:50 68.0 °F 68.0 °F 30.23 in Calm     100% 0.00 in 0.0 W/m2 OVC
08:55 68.0 °F 68.0 °F 30.23 in Calm     100% 0.00 in 0.0 W/m2 OVC
09:00 68.0 °F 68.0 °F 30.23 in Calm     100% 0.00 in 0.0 W/m2 OVC
09:05 69.1 °F 69.1 °F 30.23 in Calm     100% 0.00 in 0.0 W/m2 OVC
09:10 69.1 °F 69.1 °F 30.23 in Calm     100% 0.00 in 0.0 W/m2 OVC
09:15 69.1 °F 69.1 °F 30.23 in Calm     100% 0.00 in 0.0 W/m2 OVC
09:20 69.1 °F 69.1 °F 30.23 in Calm     100% 0.00 in 0.0 W/m2 OVC
09:25 69.1 °F 69.1 °F 30.23 in Calm     100% 0.00 in 0.0 W/m2 OVC
09:30 69.1 °F 69.1 °F 30.23 in Calm     100% 0.00 in 0.0 W/m2 OVC
09:35 69.1 °F 69.1 °F 30.23 in Calm     100% 0.00 in 0.0 W/m2 BKN
09:40 69.1 °F 69.1 °F 30.23 in Calm     100% 0.00 in 0.0 W/m2 BKN
09:45 69.1 °F 69.1 °F 30.23 in Calm     100% 0.00 in 0.0 W/m2 BKN
09:50 69.1 °F 69.1 °F 30.23 in Calm     100% 0.00 in 0.0 W/m2 CLR
09:55 69.1 °F 69.1 °F 30.23 in Calm     100% 0.00 in 0.0 W/m2 CLR
10:00 69.1 °F 69.1 °F 30.23 in Calm     100% 0.00 in 0.0 W/m2 CLR
10:05 75.0 °F 69.9 °F 30.22 in Calm     84% 0.00 in 0.0 W/m2 CLR
10:10 75.0 °F 69.9 °F 30.22 in Calm     84% 0.00 in 0.0 W/m2 CLR
10:15 75.0 °F 69.9 °F 30.22 in Calm     84% 0.00 in 0.0 W/m2 CLR
10:20 75.0 °F 69.9 °F 30.22 in Calm     84% 0.00 in 0.0 W/m2 CLR
10:25 75.0 °F 69.9 °F 30.22 in Calm     84% 0.00 in 0.0 W/m2 CLR
10:30 75.0 °F 69.9 °F 30.22 in Calm     84% 0.00 in 0.0 W/m2 CLR
10:35 75.0 °F 69.9 °F 30.22 in Calm     84% 0.00 in 0.0 W/m2 CLR
10:40 75.0 °F 69.9 °F 30.22 in Calm     84% 0.00 in 0.0 W/m2 CLR
10:45 75.0 °F 69.9 °F 30.22 in Calm     84% 0.00 in 0.0 W/m2 CLR
10:50 77.0 °F 67.7 °F 30.23 in Calm     73% 0.00 in 0.0 W/m2 CLR
10:55 77.0 °F 67.7 °F 30.23 in Calm     73% 0.00 in 0.0 W/m2 CLR
11:00 77.0 °F 67.7 °F 30.23 in Calm     73% 0.00 in 0.0 W/m2 CLR
11:05 77.0 °F 66.9 °F 30.23 in Calm     71% 0.00 in 0.0 W/m2 FEW
11:10 77.0 °F 66.9 °F 30.23 in Calm     71% 0.00 in 0.0 W/m2 FEW
11:15 77.0 °F 66.9 °F 30.23 in Calm     71% 0.00 in 0.0 W/m2 FEW
11:20 77.0 °F 66.9 °F 30.23 in Calm     71% 0.00 in 0.0 W/m2 FEW
11:25 77.0 °F 66.9 °F 30.23 in Calm     71% 0.00 in 0.0 W/m2 FEW
11:30 77.0 °F 66.9 °F 30.23 in Calm     71% 0.00 in 0.0 W/m2 FEW
11:35 77.0 °F 66.9 °F 30.23 in Calm     71% 0.00 in 0.0 W/m2 FEW
11:40 77.0 °F 66.9 °F 30.23 in Calm     71% 0.00 in 0.0 W/m2 FEW
11:45 77.0 °F 66.9 °F 30.23 in Calm     71% 0.00 in 0.0 W/m2 FEW
11:50 77.0 °F 66.9 °F 30.23 in Calm     71% 0.00 in 0.0 W/m2 FEW
11:55 77.0 °F 66.9 °F 30.23 in Calm     71% 0.00 in 0.0 W/m2 FEW
12:00 77.0 °F 66.9 °F 30.23 in Calm     71% 0.00 in 0.0 W/m2 FEW
12:05 80.1 °F 66.8 °F 30.20 in Calm     64% 0.00 in 0.0 W/m2 FEW
12:10 80.1 °F 66.8 °F 30.20 in Calm     64% 0.00 in 0.0 W/m2 FEW
12:15 80.1 °F 66.8 °F 30.20 in Calm     64% 0.00 in 0.0 W/m2 FEW
12:20 80.1 °F 66.8 °F 30.20 in Calm     64% 0.00 in 0.0 W/m2 FEW
12:25 80.1 °F 66.8 °F 30.20 in Calm     64% 0.00 in 0.0 W/m2 FEW
12:30 80.1 °F 66.8 °F 30.20 in Calm     64% 0.00 in 0.0 W/m2 FEW
12:35 80.1 °F 66.8 °F 30.20 in Calm     64% 0.00 in 0.0 W/m2 FEW
12:40 80.1 °F 66.8 °F 30.20 in Calm     64% 0.00 in 0.0 W/m2 FEW
12:45 80.1 °F 66.8 °F 30.20 in Calm     64% 0.00 in 0.0 W/m2 FEW
12:50 80.1 °F 66.8 °F 30.20 in Calm     64% 0.00 in 0.0 W/m2 FEW
12:55 80.1 °F 66.8 °F 30.20 in Calm     64% 0.00 in 0.0 W/m2 FEW
13:00 80.1 °F 66.8 °F 30.20 in Calm     64% 0.00 in 0.0 W/m2 FEW
13:05 82.9 °F 64.6 °F 30.16 in Calm     54% 0.00 in 0.0 W/m2 CLR
13:10 82.9 °F 64.6 °F 30.16 in Calm     54% 0.00 in 0.0 W/m2 CLR
13:15 82.9 °F 64.6 °F 30.16 in Calm     54% 0.00 in 0.0 W/m2 CLR
13:20 82.9 °F 64.6 °F 30.16 in Calm     54% 0.00 in 0.0 W/m2 CLR
13:25 82.9 °F 64.6 °F 30.16 in Calm     54% 0.00 in 0.0 W/m2 CLR
13:30 82.9 °F 64.6 °F 30.16 in Calm     54% 0.00 in 0.0 W/m2 CLR
13:35 82.9 °F 64.6 °F 30.16 in Calm     54% 0.00 in 0.0 W/m2 CLR
13:40 82.9 °F 64.6 °F 30.16 in Calm     54% 0.00 in 0.0 W/m2 CLR
13:45 82.9 °F 64.6 °F 30.16 in Calm     54% 0.00 in 0.0 W/m2 CLR
13:50 82.9 °F 64.6 °F 30.16 in Calm     54% 0.00 in 0.0 W/m2 CLR
13:55 82.9 °F 64.6 °F 30.16 in Calm     54% 0.00 in 0.0 W/m2 CLR
14:00 82.9 °F 64.6 °F 30.16 in Calm     54% 0.00 in 0.0 W/m2 CLR
14:05 84.0 °F 63.9 °F 30.13 in Calm     51% 0.00 in 0.0 W/m2 FEW
14:10 84.0 °F 63.9 °F 30.13 in Calm     51% 0.00 in 0.0 W/m2 FEW
14:15 84.0 °F 63.9 °F 30.13 in Calm     51% 0.00 in 0.0 W/m2 FEW
14:20 84.0 °F 63.9 °F 30.13 in Calm     51% 0.00 in 0.0 W/m2 FEW
14:25 84.0 °F 63.9 °F 30.13 in Calm     51% 0.00 in 0.0 W/m2 FEW
14:30 84.0 °F 63.9 °F 30.13 in Calm     51% 0.00 in 0.0 W/m2 FEW
14:35 84.0 °F 63.9 °F 30.13 in Calm     51% 0.00 in 0.0 W/m2 FEW
14:40 84.0 °F 63.9 °F 30.13 in Calm     51% 0.00 in 0.0 W/m2 FEW
14:45 84.0 °F 63.9 °F 30.13 in Calm     51% 0.00 in 0.0 W/m2 FEW
14:50 84.0 °F 63.9 °F 30.13 in Calm     51% 0.00 in 0.0 W/m2 FEW
14:55 84.0 °F 63.9 °F 30.13 in Calm     51% 0.00 in 0.0 W/m2 FEW
15:00 84.0 °F 63.9 °F 30.13 in Calm     51% 0.00 in 0.0 W/m2 FEW
15:05 84.9 °F 62.4 °F 30.11 in Calm     47% 0.00 in 0.0 W/m2 SCT
15:10 84.9 °F 62.4 °F 30.11 in Calm     47% 0.00 in 0.0 W/m2 SCT
15:15 84.9 °F 62.4 °F 30.11 in Calm     47% 0.00 in 0.0 W/m2 SCT
15:20 84.9 °F 62.4 °F 30.11 in Calm     47% 0.00 in 0.0 W/m2 SCT
15:25 84.9 °F 62.4 °F 30.11 in Calm     47% 0.00 in 0.0 W/m2 SCT
15:30 84.9 °F 62.4 °F 30.11 in Calm     47% 0.00 in 0.0 W/m2 SCT
15:35 84.9 °F 62.4 °F 30.11 in Calm     47% 0.00 in 0.0 W/m2 SCT
15:40 84.9 °F 62.4 °F 30.11 in Calm     47% 0.00 in 0.0 W/m2 SCT
15:45 84.9 °F 62.4 °F 30.11 in Calm     47% 0.00 in 0.0 W/m2 SCT
15:50 84.9 °F 62.4 °F 30.11 in Calm     47% 0.00 in 0.0 W/m2 SCT
15:55 84.9 °F 62.4 °F 30.11 in Calm     47% 0.00 in 0.0 W/m2 SCT
16:00 84.9 °F 62.4 °F 30.11 in Calm     47% 0.00 in 0.0 W/m2 SCT
16:05 82.9 °F 62.4 °F 30.10 in Calm     50% 0.00 in 0.0 W/m2 FEW
16:10 82.9 °F 62.4 °F 30.10 in Calm     50% 0.00 in 0.0 W/m2 FEW
16:15 82.9 °F 62.4 °F 30.10 in Calm     50% 0.00 in 0.0 W/m2 FEW
16:20 82.9 °F 62.4 °F 30.10 in Calm     50% 0.00 in 0.0 W/m2 FEW
16:25 82.9 °F 62.4 °F 30.10 in Calm     50% 0.00 in 0.0 W/m2 FEW
16:30 82.9 °F 62.4 °F 30.10 in Calm     50% 0.00 in 0.0 W/m2 FEW
16:35 82.9 °F 62.4 °F 30.10 in Calm     50% 0.00 in 0.0 W/m2 FEW
16:40 82.9 °F 62.4 °F 30.10 in Calm     50% 0.00 in 0.0 W/m2 FEW
16:45 82.9 °F 62.4 °F 30.10 in Calm     50% 0.00 in 0.0 W/m2 FEW
16:50 82.9 °F 62.4 °F 30.10 in Calm     50% 0.00 in 0.0 W/m2 FEW
16:55 82.9 °F 62.4 °F 30.10 in Calm     50% 0.00 in 0.0 W/m2 FEW
17:00 82.9 °F 62.4 °F 30.10 in Calm     50% 0.00 in 0.0 W/m2 FEW
17:05 82.9 °F 61.8 °F 30.10 in Calm     49% 0.00 in 0.0 W/m2 SCT
17:10 82.9 °F 61.8 °F 30.10 in Calm     49% 0.00 in 0.0 W/m2 SCT
17:15 82.9 °F 61.8 °F 30.10 in Calm     49% 0.00 in 0.0 W/m2 SCT
17:20 82.9 °F 61.8 °F 30.10 in Calm     49% 0.00 in 0.0 W/m2 SCT
17:25 82.9 °F 61.8 °F 30.10 in Calm     49% 0.00 in 0.0 W/m2 SCT
17:30 82.9 °F 61.8 °F 30.10 in Calm     49% 0.00 in 0.0 W/m2 SCT
17:35 82.9 °F 61.8 °F 30.10 in Calm     49% 0.00 in 0.0 W/m2 SCT
17:40 82.9 °F 61.8 °F 30.10 in Calm     49% 0.00 in 0.0 W/m2 SCT
17:45 82.9 °F 61.8 °F 30.10 in Calm     49% 0.00 in 0.0 W/m2 SCT
17:50 82.9 °F 61.8 °F 30.10 in Calm     49% 0.00 in 0.0 W/m2 SCT
17:55 82.9 °F 61.8 °F 30.10 in Calm     49% 0.00 in 0.0 W/m2 SCT
18:00 82.9 °F 61.8 °F 30.10 in Calm     49% 0.00 in 0.0 W/m2 SCT
18:05 78.1 °F 68.7 °F 30.11 in Calm     73% 0.00 in 0.0 W/m2 CLR
18:10 78.1 °F 68.7 °F 30.11 in Calm     73% 0.00 in 0.0 W/m2 CLR
18:15 78.1 °F 68.7 °F 30.11 in Calm     73% 0.00 in 0.0 W/m2 CLR
18:20 78.1 °F 68.7 °F 30.11 in Calm     73% 0.00 in 0.0 W/m2 CLR
18:25 78.1 °F 68.7 °F 30.11 in Calm     73% 0.00 in 0.0 W/m2 CLR
18:30 78.1 °F 68.7 °F 30.11 in Calm     73% 0.00 in 0.0 W/m2 CLR
18:35 78.1 °F 68.7 °F 30.11 in Calm     73% 0.00 in 0.0 W/m2 CLR
18:40 78.1 °F 68.7 °F 30.11 in Calm     73% 0.00 in 0.0 W/m2 CLR
18:45 78.1 °F 68.7 °F 30.11 in Calm     73% 0.00 in 0.0 W/m2 CLR
18:50 78.1 °F 68.7 °F 30.11 in Calm     73% 0.00 in 0.0 W/m2 CLR
18:55 78.1 °F 68.7 °F 30.11 in Calm     73% 0.00 in 0.0 W/m2 CLR
19:00 78.1 °F 68.7 °F 30.11 in Calm     73% 0.00 in 0.0 W/m2 CLR
19:05 75.0 °F 68.8 °F 30.12 in Calm     81% 0.00 in 0.0 W/m2 CLR
19:10 75.0 °F 68.8 °F 30.12 in Calm     81% 0.00 in 0.0 W/m2 CLR
19:15 75.0 °F 68.8 °F 30.12 in Calm     81% 0.00 in 0.0 W/m2 CLR
19:20 75.0 °F 68.8 °F 30.12 in Calm     81% 0.00 in 0.0 W/m2 CLR
19:25 75.0 °F 68.8 °F 30.12 in Calm     81% 0.00 in 0.0 W/m2 CLR
19:30 75.0 °F 68.8 °F 30.12 in Calm     81% 0.00 in 0.0 W/m2 CLR
19:35 75.0 °F 68.8 °F 30.12 in Calm     81% 0.00 in 0.0 W/m2 CLR
19:40 75.0 °F 68.8 °F 30.12 in Calm     81% 0.00 in 0.0 W/m2 CLR
19:45 75.0 °F 68.8 °F 30.12 in Calm     81% 0.00 in 0.0 W/m2 CLR
19:50 75.0 °F 68.8 °F 30.12 in Calm     81% 0.00 in 0.0 W/m2 CLR
19:55 75.0 °F 68.8 °F 30.12 in Calm     81% 0.00 in 0.0 W/m2 CLR
20:00 75.0 °F 68.8 °F 30.12 in Calm     81% 0.00 in 0.0 W/m2 CLR
20:05 73.9 °F 67.7 °F 30.14 in Calm     81% 0.00 in 0.0 W/m2 CLR
20:10 73.9 °F 67.7 °F 30.14 in Calm     81% 0.00 in 0.0 W/m2 CLR
20:15 73.9 °F 67.7 °F 30.14 in Calm     81% 0.00 in 0.0 W/m2 CLR
20:20 73.9 °F 67.7 °F 30.14 in Calm     81% 0.00 in 0.0 W/m2 CLR
20:25 73.9 °F 67.7 °F 30.14 in Calm     81% 0.00 in 0.0 W/m2 CLR
20:30 73.9 °F 67.7 °F 30.14 in Calm     81% 0.00 in 0.0 W/m2 CLR
20:35 73.9 °F 67.7 °F 30.14 in Calm     81% 0.00 in 0.0 W/m2 CLR
20:40 73.9 °F 67.7 °F 30.14 in Calm     81% 0.00 in 0.0 W/m2 CLR
20:45 73.9 °F 67.7 °F 30.14 in Calm     81% 0.00 in 0.0 W/m2 CLR
20:50 73.9 °F 67.7 °F 30.14 in Calm     81% 0.00 in 0.0 W/m2 CLR
20:55 73.9 °F 67.7 °F 30.14 in Calm     81% 0.00 in 0.0 W/m2 CLR
21:00 73.9 °F 67.7 °F 30.14 in Calm     81% 0.00 in 0.0 W/m2 CLR
21:05 72.0 °F 66.9 °F 30.14 in Calm     84% 0.00 in 0.0 W/m2 CLR
21:10 72.0 °F 66.9 °F 30.14 in Calm     84% 0.00 in 0.0 W/m2 CLR
21:15 72.0 °F 66.9 °F 30.14 in Calm     84% 0.00 in 0.0 W/m2 CLR
21:20 72.0 °F 66.9 °F 30.14 in Calm     84% 0.00 in 0.0 W/m2 CLR
21:25 72.0 °F 66.9 °F 30.14 in Calm     84% 0.00 in 0.0 W/m2 CLR
21:30 72.0 °F 66.9 °F 30.14 in Calm     84% 0.00 in 0.0 W/m2 CLR
21:35 72.0 °F 66.9 °F 30.14 in Calm     84% 0.00 in 0.0 W/m2 CLR
21:40 72.0 °F 66.9 °F 30.14 in Calm     84% 0.00 in 0.0 W/m2 CLR
21:45 72.0 °F 66.9 °F 30.14 in Calm     84% 0.00 in 0.0 W/m2 CLR
21:50 72.0 °F 66.9 °F 30.14 in Calm     84% 0.00 in 0.0 W/m2 CLR
21:55 72.0 °F 66.9 °F 30.14 in Calm     84% 0.00 in 0.0 W/m2 CLR
22:00 72.0 °F 66.9 °F 30.14 in Calm     84% 0.00 in 0.0 W/m2 CLR
22:05 71.1 °F 66.7 °F 30.15 in Calm     86% 0.00 in 0.0 W/m2 CLR
22:10 71.1 °F 66.7 °F 30.15 in Calm     86% 0.00 in 0.0 W/m2 CLR
22:15 71.1 °F 66.7 °F 30.15 in Calm     86% 0.00 in 0.0 W/m2 CLR
22:20 71.1 °F 66.7 °F 30.15 in Calm     86% 0.00 in 0.0 W/m2 CLR
22:25 71.1 °F 66.7 °F 30.15 in Calm     86% 0.00 in 0.0 W/m2 CLR
22:30 71.1 °F 66.7 °F 30.15 in Calm     86% 0.00 in 0.0 W/m2 CLR
22:35 71.1 °F 66.7 °F 30.15 in Calm     86% 0.00 in 0.0 W/m2 CLR
22:40 71.1 °F 66.7 °F 30.15 in Calm     86% 0.00 in 0.0 W/m2 CLR
22:45 71.1 °F 66.7 °F 30.15 in Calm     86% 0.00 in 0.0 W/m2 CLR
22:50 71.1 °F 66.7 °F 30.15 in Calm     86% 0.00 in 0.0 W/m2 CLR
22:55 71.1 °F 66.7 °F 30.15 in Calm     86% 0.00 in 0.0 W/m2 CLR
23:00 71.1 °F 66.7 °F 30.15 in Calm     86% 0.00 in 0.0 W/m2 CLR
23:05 70.0 °F 66.9 °F 30.15 in Calm     90% 0.00 in 0.0 W/m2 CLR
23:10 70.0 °F 66.9 °F 30.15 in Calm     90% 0.00 in 0.0 W/m2 CLR
23:15 70.0 °F 66.9 °F 30.15 in Calm     90% 0.00 in 0.0 W/m2 CLR
23:20 70.0 °F 66.9 °F 30.15 in Calm     90% 0.00 in 0.0 W/m2 CLR
23:25 70.0 °F 66.9 °F 30.15 in Calm     90% 0.00 in 0.0 W/m2 CLR
23:30 70.0 °F 66.9 °F 30.15 in Calm     90% 0.00 in 0.0 W/m2 CLR
23:35 70.0 °F 66.9 °F 30.15 in Calm     90% 0.00 in 0.0 W/m2 CLR
23:40 70.0 °F 66.9 °F 30.15 in Calm     90% 0.00 in 0.0 W/m2 CLR
23:45 70.0 °F 66.9 °F 30.15 in Calm     90% 0.00 in 0.0 W/m2 CLR
23:50 70.0 °F 66.9 °F 30.15 in Calm     90% 0.00 in 0.0 W/m2 CLR
23:55 70.0 °F 66.9 °F 30.15 in Calm     90% 0.00 in 0.0 W/m2 CLR
Lake Mary, FL, USA
Compliments of Weather Underground - 1.75 mb